sensor_id;sensor_type;location;lat;lon;timestamp;temperature;humidity
26954;DHT22;14508;50.924;11.600;2023-02-15T00:01:54;1.60;99.90
26954;DHT22;14508;50.924;11.600;2023-02-15T00:04:24;1.70;99.90
26954;DHT22;14508;50.924;11.600;2023-02-15T00:07:16;1.70;99.90
26954;DHT22;14508;50.924;11.600;2023-02-15T00:09:45;1.80;99.90
26954;DHT22;14508;50.924;11.600;2023-02-15T00:12:14;1.80;99.90
26954;DHT22;14508;50.924;11.600;2023-02-15T00:14:43;1.90;99.90
26954;DHT22;14508;50.924;11.600;2023-02-15T00:17:11;1.80;99.90
26954;DHT22;14508;50.924;11.600;2023-02-15T00:19:39;1.90;99.90
26954;DHT22;14508;50.924;11.600;2023-02-15T00:22:07;1.90;99.90
26954;DHT22;14508;50.924;11.600;2023-02-15T00:24:35;1.90;99.90
26954;DHT22;14508;50.924;11.600;2023-02-15T00:27:03;2.00;99.90
26954;DHT22;14508;50.924;11.600;2023-02-15T00:29:31;1.90;99.90
26954;DHT22;14508;50.924;11.600;2023-02-15T00:32:01;2.00;99.90
26954;DHT22;14508;50.924;11.600;2023-02-15T00:34:28;2.00;99.90
26954;DHT22;14508;50.924;11.600;2023-02-15T00:36:57;1.90;99.90
26954;DHT22;14508;50.924;11.600;2023-02-15T00:39:25;2.00;99.90
26954;DHT22;14508;50.924;11.600;2023-02-15T00:41:53;1.90;99.90
26954;DHT22;14508;50.924;11.600;2023-02-15T00:44:21;1.90;99.90
26954;DHT22;14508;50.924;11.600;2023-02-15T00:46:49;1.90;99.90
26954;DHT22;14508;50.924;11.600;2023-02-15T00:49:19;1.90;99.90
26954;DHT22;14508;50.924;11.600;2023-02-15T00:51:47;1.90;99.90
26954;DHT22;14508;50.924;11.600;2023-02-15T00:54:15;1.90;99.90
26954;DHT22;14508;50.924;11.600;2023-02-15T00:56:42;1.90;99.90
26954;DHT22;14508;50.924;11.600;2023-02-15T00:59:10;1.80;99.90
26954;DHT22;14508;50.924;11.600;2023-02-15T01:01:38;1.80;99.90
26954;DHT22;14508;50.924;11.600;2023-02-15T01:04:06;1.80;99.90
26954;DHT22;14508;50.924;11.600;2023-02-15T01:06:35;1.80;99.90
26954;DHT22;14508;50.924;11.600;2023-02-15T01:09:03;1.80;99.90
26954;DHT22;14508;50.924;11.600;2023-02-15T01:11:31;1.80;99.90
26954;DHT22;14508;50.924;11.600;2023-02-15T01:13:59;1.70;99.90
26954;DHT22;14508;50.924;11.600;2023-02-15T01:16:28;1.70;99.90
26954;DHT22;14508;50.924;11.600;2023-02-15T01:18:58;1.70;99.90
26954;DHT22;14508;50.924;11.600;2023-02-15T01:21:26;1.70;99.90
26954;DHT22;14508;50.924;11.600;2023-02-15T01:23:55;1.70;99.90
26954;DHT22;14508;50.924;11.600;2023-02-15T01:26:23;1.70;99.90
26954;DHT22;14508;50.924;11.600;2023-02-15T01:28:51;1.70;99.90
26954;DHT22;14508;50.924;11.600;2023-02-15T01:31:20;1.70;99.90
26954;DHT22;14508;50.924;11.600;2023-02-15T01:33:49;1.70;99.90
26954;DHT22;14508;50.924;11.600;2023-02-15T01:36:17;1.70;99.90
26954;DHT22;14508;50.924;11.600;2023-02-15T01:38:45;1.70;99.90
26954;DHT22;14508;50.924;11.600;2023-02-15T01:41:14;1.70;99.90
26954;DHT22;14508;50.924;11.600;2023-02-15T01:43:52;1.70;99.90
26954;DHT22;14508;50.924;11.600;2023-02-15T01:46:24;1.60;99.90
26954;DHT22;14508;50.924;11.600;2023-02-15T01:48:57;1.60;99.90
26954;DHT22;14508;50.924;11.600;2023-02-15T01:51:30;1.50;99.90
26954;DHT22;14508;50.924;11.600;2023-02-15T01:54:02;1.50;99.90
26954;DHT22;14508;50.924;11.600;2023-02-15T01:56:35;1.40;99.90
26954;DHT22;14508;50.924;11.600;2023-02-15T01:59:06;1.40;99.90
26954;DHT22;14508;50.924;11.600;2023-02-15T02:01:35;1.30;99.90
26954;DHT22;14508;50.924;11.600;2023-02-15T02:04:10;1.30;99.90
26954;DHT22;14508;50.924;11.600;2023-02-15T02:06:40;1.30;99.90
26954;DHT22;14508;50.924;11.600;2023-02-15T02:09:08;1.30;99.90
26954;DHT22;14508;50.924;11.600;2023-02-15T02:11:39;1.30;99.90
26954;DHT22;14508;50.924;11.600;2023-02-15T02:14:10;1.30;99.90
26954;DHT22;14508;50.924;11.600;2023-02-15T02:16:46;1.30;99.90
26954;DHT22;14508;50.924;11.600;2023-02-15T02:22:51;1.30;99.90
26954;DHT22;14508;50.924;11.600;2023-02-15T02:25:43;1.10;99.90
26954;DHT22;14508;50.924;11.600;2023-02-15T02:28:34;1.00;99.90
26954;DHT22;14508;50.924;11.600;2023-02-15T02:31:39;1.00;99.90
26954;DHT22;14508;50.924;11.600;2023-02-15T02:34:16;1.00;99.90
26954;DHT22;14508;50.924;11.600;2023-02-15T02:36:51;1.10;99.90
26954;DHT22;14508;50.924;11.600;2023-02-15T02:39:26;1.00;99.90
26954;DHT22;14508;50.924;11.600;2023-02-15T02:42:02;1.10;99.90
26954;DHT22;14508;50.924;11.600;2023-02-15T02:44:40;1.10;99.90
26954;DHT22;14508;50.924;11.600;2023-02-15T02:47:13;1.00;99.90
26954;DHT22;14508;50.924;11.600;2023-02-15T02:49:44;1.00;99.90
26954;DHT22;14508;50.924;11.600;2023-02-15T02:52:35;1.00;99.90
26954;DHT22;14508;50.924;11.600;2023-02-15T02:55:05;1.00;99.90
26954;DHT22;14508;50.924;11.600;2023-02-15T02:57:36;1.00;99.90
26954;DHT22;14508;50.924;11.600;2023-02-15T03:00:07;1.00;99.90
26954;DHT22;14508;50.924;11.600;2023-02-15T03:02:39;1.10;99.90
26954;DHT22;14508;50.924;11.600;2023-02-15T03:05:14;1.10;99.90
26954;DHT22;14508;50.924;11.600;2023-02-15T03:07:47;1.10;99.90
26954;DHT22;14508;50.924;11.600;2023-02-15T03:10:18;1.10;99.90
26954;DHT22;14508;50.924;11.600;2023-02-15T03:12:50;1.10;99.90
26954;DHT22;14508;50.924;11.600;2023-02-15T03:15:20;1.10;99.90
26954;DHT22;14508;50.924;11.600;2023-02-15T03:17:54;1.10;99.90
26954;DHT22;14508;50.924;11.600;2023-02-15T03:20:28;1.00;99.90
26954;DHT22;14508;50.924;11.600;2023-02-15T03:23:02;1.00;99.90
26954;DHT22;14508;50.924;11.600;2023-02-15T03:25:34;0.90;99.90
26954;DHT22;14508;50.924;11.600;2023-02-15T03:28:06;0.90;99.90
26954;DHT22;14508;50.924;11.600;2023-02-15T03:30:36;0.90;99.90
26954;DHT22;14508;50.924;11.600;2023-02-15T03:33:05;0.80;99.90
26954;DHT22;14508;50.924;11.600;2023-02-15T03:35:40;0.80;99.90
26954;DHT22;14508;50.924;11.600;2023-02-15T03:38:12;0.80;99.90
26954;DHT22;14508;50.924;11.600;2023-02-15T03:40:45;0.80;99.90
26954;DHT22;14508;50.924;11.600;2023-02-15T03:43:38;0.70;99.90
26954;DHT22;14508;50.924;11.600;2023-02-15T03:46:08;0.70;99.90
26954;DHT22;14508;50.924;11.600;2023-02-15T03:48:41;0.70;99.90
26954;DHT22;14508;50.924;11.600;2023-02-15T03:51:16;0.70;99.90
26954;DHT22;14508;50.924;11.600;2023-02-15T03:54:05;0.70;99.90
26954;DHT22;14508;50.924;11.600;2023-02-15T03:56:36;0.70;99.90
26954;DHT22;14508;50.924;11.600;2023-02-15T03:59:04;0.70;99.90
26954;DHT22;14508;50.924;11.600;2023-02-15T04:01:54;0.70;99.90
26954;DHT22;14508;50.924;11.600;2023-02-15T04:04:34;0.70;99.90
26954;DHT22;14508;50.924;11.600;2023-02-15T04:07:05;0.70;99.90
26954;DHT22;14508;50.924;11.600;2023-02-15T04:09:33;0.80;99.90
26954;DHT22;14508;50.924;11.600;2023-02-15T04:12:19;0.80;99.90
26954;DHT22;14508;50.924;11.600;2023-02-15T04:14:47;0.90;99.90
26954;DHT22;14508;50.924;11.600;2023-02-15T04:17:32;0.80;99.90
26954;DHT22;14508;50.924;11.600;2023-02-15T04:20:00;0.80;99.90
26954;DHT22;14508;50.924;11.600;2023-02-15T04:22:46;0.70;99.90
26954;DHT22;14508;50.924;11.600;2023-02-15T04:25:32;0.60;99.90
26954;DHT22;14508;50.924;11.600;2023-02-15T04:28:00;0.60;99.90
26954;DHT22;14508;50.924;11.600;2023-02-15T04:30:27;0.60;99.90
26954;DHT22;14508;50.924;11.600;2023-02-15T04:32:55;0.60;99.90
26954;DHT22;14508;50.924;11.600;2023-02-15T04:35:24;0.60;99.90
26954;DHT22;14508;50.924;11.600;2023-02-15T04:37:53;0.60;99.90
26954;DHT22;14508;50.924;11.600;2023-02-15T04:40:22;0.50;99.90
26954;DHT22;14508;50.924;11.600;2023-02-15T04:42:50;0.50;99.90
26954;DHT22;14508;50.924;11.600;2023-02-15T04:45:18;0.40;99.90
26954;DHT22;14508;50.924;11.600;2023-02-15T04:47:46;0.40;99.90
26954;DHT22;14508;50.924;11.600;2023-02-15T04:50:14;0.40;99.90
26954;DHT22;14508;50.924;11.600;2023-02-15T04:52:42;0.40;99.90
26954;DHT22;14508;50.924;11.600;2023-02-15T04:55:11;0.30;99.90
26954;DHT22;14508;50.924;11.600;2023-02-15T04:57:40;0.30;99.90
26954;DHT22;14508;50.924;11.600;2023-02-15T05:00:09;0.20;99.90
26954;DHT22;14508;50.924;11.600;2023-02-15T05:02:37;0.20;99.90
26954;DHT22;14508;50.924;11.600;2023-02-15T05:05:06;0.30;99.90
26954;DHT22;14508;50.924;11.600;2023-02-15T05:07:36;0.30;99.90
26954;DHT22;14508;50.924;11.600;2023-02-15T05:10:04;0.30;99.90
26954;DHT22;14508;50.924;11.600;2023-02-15T05:12:34;0.40;99.90
26954;DHT22;14508;50.924;11.600;2023-02-15T05:15:02;0.40;99.90
26954;DHT22;14508;50.924;11.600;2023-02-15T05:17:30;0.40;99.90
26954;DHT22;14508;50.924;11.600;2023-02-15T05:19:58;0.40;99.90
26954;DHT22;14508;50.924;11.600;2023-02-15T05:22:26;0.50;99.90
26954;DHT22;14508;50.924;11.600;2023-02-15T05:24:53;0.50;99.90
26954;DHT22;14508;50.924;11.600;2023-02-15T05:27:40;0.50;99.90
26954;DHT22;14508;50.924;11.600;2023-02-15T05:30:26;0.50;99.90
26954;DHT22;14508;50.924;11.600;2023-02-15T05:32:54;0.50;99.90
26954;DHT22;14508;50.924;11.600;2023-02-15T05:35:22;0.50;99.90
26954;DHT22;14508;50.924;11.600;2023-02-15T05:37:50;0.60;99.90
26954;DHT22;14508;50.924;11.600;2023-02-15T05:40:18;0.50;99.90
26954;DHT22;14508;50.924;11.600;2023-02-15T05:42:47;0.50;99.90
26954;DHT22;14508;50.924;11.600;2023-02-15T05:45:15;0.50;99.90
26954;DHT22;14508;50.924;11.600;2023-02-15T05:47:43;0.40;99.90
26954;DHT22;14508;50.924;11.600;2023-02-15T05:50:11;0.40;99.90
26954;DHT22;14508;50.924;11.600;2023-02-15T05:52:39;0.30;99.90
26954;DHT22;14508;50.924;11.600;2023-02-15T05:55:07;0.30;99.90
26954;DHT22;14508;50.924;11.600;2023-02-15T05:57:36;0.30;99.90
26954;DHT22;14508;50.924;11.600;2023-02-15T06:00:06;0.30;99.90
26954;DHT22;14508;50.924;11.600;2023-02-15T06:02:39;0.30;99.90
26954;DHT22;14508;50.924;11.600;2023-02-15T06:05:07;0.30;99.90
26954;DHT22;14508;50.924;11.600;2023-02-15T06:07:35;0.30;99.90
26954;DHT22;14508;50.924;11.600;2023-02-15T06:10:04;0.30;99.90
26954;DHT22;14508;50.924;11.600;2023-02-15T06:12:32;0.40;99.90
26954;DHT22;14508;50.924;11.600;2023-02-15T06:15:00;0.40;99.90
26954;DHT22;14508;50.924;11.600;2023-02-15T06:17:29;0.40;99.90
26954;DHT22;14508;50.924;11.600;2023-02-15T06:19:57;0.40;99.90
26954;DHT22;14508;50.924;11.600;2023-02-15T06:22:25;0.40;99.90
26954;DHT22;14508;50.924;11.600;2023-02-15T06:24:54;0.40;99.90
26954;DHT22;14508;50.924;11.600;2023-02-15T06:27:22;0.40;99.90
26954;DHT22;14508;50.924;11.600;2023-02-15T06:29:50;0.40;99.90
26954;DHT22;14508;50.924;11.600;2023-02-15T06:32:18;0.40;99.90
26954;DHT22;14508;50.924;11.600;2023-02-15T06:34:47;0.40;99.90
26954;DHT22;14508;50.924;11.600;2023-02-15T06:37:15;0.50;99.90
26954;DHT22;14508;50.924;11.600;2023-02-15T06:39:43;0.50;99.90
26954;DHT22;14508;50.924;11.600;2023-02-15T06:42:11;0.50;99.90
26954;DHT22;14508;50.924;11.600;2023-02-15T06:44:39;0.50;99.90
26954;DHT22;14508;50.924;11.600;2023-02-15T06:47:07;0.50;99.90
26954;DHT22;14508;50.924;11.600;2023-02-15T06:49:35;0.50;99.90
26954;DHT22;14508;50.924;11.600;2023-02-15T06:52:04;0.50;99.90
26954;DHT22;14508;50.924;11.600;2023-02-15T06:54:32;0.50;99.90
26954;DHT22;14508;50.924;11.600;2023-02-15T06:57:00;0.50;99.90
26954;DHT22;14508;50.924;11.600;2023-02-15T06:59:28;0.60;99.90
26954;DHT22;14508;50.924;11.600;2023-02-15T07:01:56;0.60;99.90
26954;DHT22;14508;50.924;11.600;2023-02-15T07:04:24;0.60;99.90
26954;DHT22;14508;50.924;11.600;2023-02-15T07:06:52;0.60;99.90
26954;DHT22;14508;50.924;11.600;2023-02-15T07:09:21;0.60;99.90
26954;DHT22;14508;50.924;11.600;2023-02-15T07:11:49;0.60;99.90
26954;DHT22;14508;50.924;11.600;2023-02-15T07:14:34;0.70;99.90
26954;DHT22;14508;50.924;11.600;2023-02-15T07:17:02;0.70;99.90
26954;DHT22;14508;50.924;11.600;2023-02-15T07:19:32;0.70;99.90
26954;DHT22;14508;50.924;11.600;2023-02-15T07:22:00;0.80;99.90
26954;DHT22;14508;50.924;11.600;2023-02-15T07:24:31;0.80;99.90
26954;DHT22;14508;50.924;11.600;2023-02-15T07:26:59;0.90;99.90
26954;DHT22;14508;50.924;11.600;2023-02-15T07:29:27;0.90;99.90
26954;DHT22;14508;50.924;11.600;2023-02-15T07:31:55;0.90;99.90
26954;DHT22;14508;50.924;11.600;2023-02-15T07:34:23;1.00;99.90
26954;DHT22;14508;50.924;11.600;2023-02-15T07:36:51;1.00;99.90
26954;DHT22;14508;50.924;11.600;2023-02-15T07:39:20;1.00;99.90
26954;DHT22;14508;50.924;11.600;2023-02-15T07:41:49;1.10;99.90
26954;DHT22;14508;50.924;11.600;2023-02-15T07:44:17;1.10;99.90
26954;DHT22;14508;50.924;11.600;2023-02-15T07:46:45;1.20;99.90
26954;DHT22;14508;50.924;11.600;2023-02-15T07:49:13;1.30;99.90
26954;DHT22;14508;50.924;11.600;2023-02-15T07:51:42;1.30;99.90
26954;DHT22;14508;50.924;11.600;2023-02-15T07:54:10;1.40;99.90
26954;DHT22;14508;50.924;11.600;2023-02-15T07:56:37;1.50;99.90
26954;DHT22;14508;50.924;11.600;2023-02-15T07:59:07;1.50;99.90
26954;DHT22;14508;50.924;11.600;2023-02-15T08:01:37;1.60;99.90
26954;DHT22;14508;50.924;11.600;2023-02-15T08:04:07;1.60;99.90
26954;DHT22;14508;50.924;11.600;2023-02-15T08:06:36;1.60;99.90
26954;DHT22;14508;50.924;11.600;2023-02-15T08:09:05;1.70;99.90
26954;DHT22;14508;50.924;11.600;2023-02-15T08:11:35;1.60;99.90
26954;DHT22;14508;50.924;11.600;2023-02-15T08:14:10;1.60;99.90
26954;DHT22;14508;50.924;11.600;2023-02-15T08:16:40;1.60;99.90
26954;DHT22;14508;50.924;11.600;2023-02-15T08:19:10;1.50;99.90
26954;DHT22;14508;50.924;11.600;2023-02-15T08:21:40;1.50;99.90
26954;DHT22;14508;50.924;11.600;2023-02-15T08:24:09;1.50;99.90
26954;DHT22;14508;50.924;11.600;2023-02-15T08:26:38;1.40;99.90
26954;DHT22;14508;50.924;11.600;2023-02-15T08:29:09;1.50;99.90
26954;DHT22;14508;50.924;11.600;2023-02-15T08:31:37;1.60;99.90
26954;DHT22;14508;50.924;11.600;2023-02-15T08:34:07;1.60;99.90
26954;DHT22;14508;50.924;11.600;2023-02-15T08:36:35;1.60;99.90
26954;DHT22;14508;50.924;11.600;2023-02-15T08:39:05;1.70;99.90
26954;DHT22;14508;50.924;11.600;2023-02-15T08:41:34;1.70;99.90
26954;DHT22;14508;50.924;11.600;2023-02-15T08:44:04;1.70;99.90
26954;DHT22;14508;50.924;11.600;2023-02-15T08:46:37;1.70;99.90
26954;DHT22;14508;50.924;11.600;2023-02-15T08:49:05;1.80;99.90
26954;DHT22;14508;50.924;11.600;2023-02-15T08:51:34;1.90;99.90
26954;DHT22;14508;50.924;11.600;2023-02-15T08:54:07;1.90;99.90
26954;DHT22;14508;50.924;11.600;2023-02-15T08:56:37;1.90;99.90
26954;DHT22;14508;50.924;11.600;2023-02-15T08:59:07;2.00;99.90
26954;DHT22;14508;50.924;11.600;2023-02-15T09:01:36;2.10;99.90
26954;DHT22;14508;50.924;11.600;2023-02-15T09:04:06;2.10;99.90
26954;DHT22;14508;50.924;11.600;2023-02-15T09:06:35;2.20;99.90
26954;DHT22;14508;50.924;11.600;2023-02-15T09:09:04;2.20;99.90
26954;DHT22;14508;50.924;11.600;2023-02-15T09:11:34;2.20;99.90
26954;DHT22;14508;50.924;11.600;2023-02-15T09:14:04;2.30;99.90
26954;DHT22;14508;50.924;11.600;2023-02-15T09:16:33;2.40;99.90
26954;DHT22;14508;50.924;11.600;2023-02-15T09:19:03;2.40;99.90
26954;DHT22;14508;50.924;11.600;2023-02-15T09:21:33;2.40;99.90
26954;DHT22;14508;50.924;11.600;2023-02-15T09:24:04;2.50;99.90
26954;DHT22;14508;50.924;11.600;2023-02-15T09:26:34;2.60;99.90
26954;DHT22;14508;50.924;11.600;2023-02-15T09:29:03;2.80;99.90
26954;DHT22;14508;50.924;11.600;2023-02-15T09:31:32;3.00;99.90
26954;DHT22;14508;50.924;11.600;2023-02-15T09:34:03;3.20;99.90
26954;DHT22;14508;50.924;11.600;2023-02-15T09:36:32;3.30;99.90
26954;DHT22;14508;50.924;11.600;2023-02-15T09:39:04;3.50;99.90
26954;DHT22;14508;50.924;11.600;2023-02-15T09:44:41;3.80;99.90
26954;DHT22;14508;50.924;11.600;2023-02-15T09:47:32;3.80;99.90
26954;DHT22;14508;50.924;11.600;2023-02-15T09:50:11;3.80;99.90
26954;DHT22;14508;50.924;11.600;2023-02-15T09:52:51;3.80;99.90
26954;DHT22;14508;50.924;11.600;2023-02-15T09:55:40;3.80;99.90
26954;DHT22;14508;50.924;11.600;2023-02-15T09:58:16;3.90;99.90
26954;DHT22;14508;50.924;11.600;2023-02-15T10:00:50;3.90;99.90
26954;DHT22;14508;50.924;11.600;2023-02-15T10:03:42;4.00;99.90
26954;DHT22;14508;50.924;11.600;2023-02-15T10:06:32;4.00;99.90
26954;DHT22;14508;50.924;11.600;2023-02-15T10:09:22;4.10;99.90
26954;DHT22;14508;50.924;11.600;2023-02-15T10:12:06;4.10;99.90
26954;DHT22;14508;50.924;11.600;2023-02-15T10:14:52;4.20;99.90
26954;DHT22;14508;50.924;11.600;2023-02-15T10:17:33;4.20;99.90
26954;DHT22;14508;50.924;11.600;2023-02-15T10:20:13;4.30;99.90
26954;DHT22;14508;50.924;11.600;2023-02-15T10:23:01;4.40;99.90
26954;DHT22;14508;50.924;11.600;2023-02-15T10:25:40;4.40;99.90
26954;DHT22;14508;50.924;11.600;2023-02-15T10:28:13;4.50;99.90
26954;DHT22;14508;50.924;11.600;2023-02-15T10:30:46;4.60;99.90
26954;DHT22;14508;50.924;11.600;2023-02-15T10:33:37;4.70;99.90
26954;DHT22;14508;50.924;11.600;2023-02-15T10:36:19;4.80;99.90
26954;DHT22;14508;50.924;11.600;2023-02-15T10:39:00;5.00;99.90
26954;DHT22;14508;50.924;11.600;2023-02-15T10:41:35;5.10;99.90
26954;DHT22;14508;50.924;11.600;2023-02-15T10:44:28;5.20;99.90
26954;DHT22;14508;50.924;11.600;2023-02-15T10:47:20;5.40;99.90
26954;DHT22;14508;50.924;11.600;2023-02-15T10:50:06;5.50;99.90
26954;DHT22;14508;50.924;11.600;2023-02-15T10:52:44;5.70;99.90
26954;DHT22;14508;50.924;11.600;2023-02-15T10:55:31;5.70;99.90
26954;DHT22;14508;50.924;11.600;2023-02-15T10:58:10;5.90;99.90
26954;DHT22;14508;50.924;11.600;2023-02-15T11:00:46;6.00;99.90
26954;DHT22;14508;50.924;11.600;2023-02-15T11:03:27;6.20;99.90
26954;DHT22;14508;50.924;11.600;2023-02-15T11:06:03;6.30;99.90
26954;DHT22;14508;50.924;11.600;2023-02-15T11:08:35;6.50;99.90
26954;DHT22;14508;50.924;11.600;2023-02-15T11:11:08;6.60;99.90
26954;DHT22;14508;50.924;11.600;2023-02-15T11:13:39;6.80;99.90
26954;DHT22;14508;50.924;11.600;2023-02-15T11:16:14;6.90;99.90
26954;DHT22;14508;50.924;11.600;2023-02-15T11:18:48;7.10;99.90
26954;DHT22;14508;50.924;11.600;2023-02-15T11:21:21;7.20;99.90
26954;DHT22;14508;50.924;11.600;2023-02-15T11:23:51;7.40;99.90
26954;DHT22;14508;50.924;11.600;2023-02-15T11:26:27;7.50;99.90
26954;DHT22;14508;50.924;11.600;2023-02-15T11:29:00;7.60;99.90
26954;DHT22;14508;50.924;11.600;2023-02-15T11:31:36;7.70;99.90
26954;DHT22;14508;50.924;11.600;2023-02-15T11:34:16;7.90;99.90
26954;DHT22;14508;50.924;11.600;2023-02-15T11:36:49;8.00;99.90
26954;DHT22;14508;50.924;11.600;2023-02-15T11:39:19;8.10;99.90
26954;DHT22;14508;50.924;11.600;2023-02-15T11:41:52;8.30;99.90
26954;DHT22;14508;50.924;11.600;2023-02-15T11:44:23;8.40;99.90
26954;DHT22;14508;50.924;11.600;2023-02-15T11:46:53;8.50;99.90
26954;DHT22;14508;50.924;11.600;2023-02-15T11:49:24;8.60;99.90
26954;DHT22;14508;50.924;11.600;2023-02-15T11:51:56;8.70;99.90
26954;DHT22;14508;50.924;11.600;2023-02-15T11:54:27;8.80;99.90
26954;DHT22;14508;50.924;11.600;2023-02-15T11:57:01;8.90;99.90
26954;DHT22;14508;50.924;11.600;2023-02-15T11:59:34;9.10;99.90
26954;DHT22;14508;50.924;11.600;2023-02-15T12:02:07;9.20;99.90
26954;DHT22;14508;50.924;11.600;2023-02-15T12:04:43;9.30;99.90
26954;DHT22;14508;50.924;11.600;2023-02-15T12:07:15;9.30;97.70
26954;DHT22;14508;50.924;11.600;2023-02-15T12:09:48;9.40;97.80
26954;DHT22;14508;50.924;11.600;2023-02-15T12:12:23;9.50;97.70
26954;DHT22;14508;50.924;11.600;2023-02-15T12:14:52;9.60;97.10
26954;DHT22;14508;50.924;11.600;2023-02-15T12:17:22;9.80;96.80
26954;DHT22;14508;50.924;11.600;2023-02-15T12:19:52;9.90;95.80
26954;DHT22;14508;50.924;11.600;2023-02-15T12:22:23;10.00;95.00
26954;DHT22;14508;50.924;11.600;2023-02-15T12:24:54;10.10;93.90
26954;DHT22;14508;50.924;11.600;2023-02-15T12:27:27;10.20;92.80
26954;DHT22;14508;50.924;11.600;2023-02-15T12:29:58;10.20;91.80
26954;DHT22;14508;50.924;11.600;2023-02-15T12:32:30;10.40;91.20
26954;DHT22;14508;50.924;11.600;2023-02-15T12:35:01;10.40;90.80
26954;DHT22;14508;50.924;11.600;2023-02-15T12:37:31;10.50;90.10
26954;DHT22;14508;50.924;11.600;2023-02-15T12:40:11;10.70;87.60
26954;DHT22;14508;50.924;11.600;2023-02-15T12:42:46;10.80;87.10
26954;DHT22;14508;50.924;11.600;2023-02-15T12:45:24;10.80;84.30
26954;DHT22;14508;50.924;11.600;2023-02-15T12:48:15;10.90;82.90
26954;DHT22;14508;50.924;11.600;2023-02-15T12:50:44;11.00;80.80
26954;DHT22;14508;50.924;11.600;2023-02-15T12:53:21;11.00;81.10
26954;DHT22;14508;50.924;11.600;2023-02-15T12:55:52;11.10;80.10
26954;DHT22;14508;50.924;11.600;2023-02-15T12:58:23;11.20;79.40
26954;DHT22;14508;50.924;11.600;2023-02-15T13:01:14;11.20;77.40
26954;DHT22;14508;50.924;11.600;2023-02-15T13:03:57;11.40;75.40
26954;DHT22;14508;50.924;11.600;2023-02-15T13:06:27;11.40;74.80
26954;DHT22;14508;50.924;11.600;2023-02-15T13:08:58;11.60;74.50
26954;DHT22;14508;50.924;11.600;2023-02-15T13:11:33;11.70;72.60
26954;DHT22;14508;50.924;11.600;2023-02-15T13:14:13;11.70;71.30
26954;DHT22;14508;50.924;11.600;2023-02-15T13:16:46;11.80;71.30
26954;DHT22;14508;50.924;11.600;2023-02-15T13:19:16;11.90;70.90
26954;DHT22;14508;50.924;11.600;2023-02-15T13:21:47;11.90;70.00
26954;DHT22;14508;50.924;11.600;2023-02-15T13:24:20;12.00;70.00
26954;DHT22;14508;50.924;11.600;2023-02-15T13:26:51;12.00;69.70
26954;DHT22;14508;50.924;11.600;2023-02-15T13:29:37;12.00;68.60
26954;DHT22;14508;50.924;11.600;2023-02-15T13:32:12;12.10;66.90
26954;DHT22;14508;50.924;11.600;2023-02-15T13:34:43;12.20;66.20
26954;DHT22;14508;50.924;11.600;2023-02-15T13:37:16;12.20;64.70
26954;DHT22;14508;50.924;11.600;2023-02-15T13:39:48;12.20;63.30
26954;DHT22;14508;50.924;11.600;2023-02-15T13:42:24;12.30;62.30
26954;DHT22;14508;50.924;11.600;2023-02-15T13:45:14;12.30;61.80
26954;DHT22;14508;50.924;11.600;2023-02-15T13:47:54;12.40;62.20
26954;DHT22;14508;50.924;11.600;2023-02-15T13:50:39;12.50;62.50
26954;DHT22;14508;50.924;11.600;2023-02-15T13:53:24;12.60;62.50
26954;DHT22;14508;50.924;11.600;2023-02-15T13:55:58;12.60;61.40
26954;DHT22;14508;50.924;11.600;2023-02-15T13:58:54;12.60;60.40
26954;DHT22;14508;50.924;11.600;2023-02-15T14:01:34;12.60;59.10
26954;DHT22;14508;50.924;11.600;2023-02-15T14:04:31;12.70;58.10
26954;DHT22;14508;50.924;11.600;2023-02-15T14:07:16;12.70;58.10
26954;DHT22;14508;50.924;11.600;2023-02-15T14:09:55;12.90;59.00
26954;DHT22;14508;50.924;11.600;2023-02-15T14:12:38;12.90;59.40
26954;DHT22;14508;50.924;11.600;2023-02-15T14:15:26;13.00;59.80
26954;DHT22;14508;50.924;11.600;2023-02-15T14:18:09;13.00;59.50
26954;DHT22;14508;50.924;11.600;2023-02-15T14:20:53;13.10;57.90
26954;DHT22;14508;50.924;11.600;2023-02-15T14:23:38;13.10;57.80
26954;DHT22;14508;50.924;11.600;2023-02-15T14:26:15;13.10;58.10
26954;DHT22;14508;50.924;11.600;2023-02-15T14:28:49;13.10;58.10
26954;DHT22;14508;50.924;11.600;2023-02-15T14:31:22;13.10;57.80
26954;DHT22;14508;50.924;11.600;2023-02-15T14:33:56;13.10;57.60
26954;DHT22;14508;50.924;11.600;2023-02-15T14:36:25;13.10;57.30
26954;DHT22;14508;50.924;11.600;2023-02-15T14:39:04;13.10;57.00
26954;DHT22;14508;50.924;11.600;2023-02-15T14:41:58;13.10;56.50
26954;DHT22;14508;50.924;11.600;2023-02-15T14:44:32;13.10;58.90
26954;DHT22;14508;50.924;11.600;2023-02-15T14:47:09;13.20;60.70
26954;DHT22;14508;50.924;11.600;2023-02-15T14:49:39;13.10;63.60
26954;DHT22;14508;50.924;11.600;2023-02-15T14:52:08;13.00;64.70
26954;DHT22;14508;50.924;11.600;2023-02-15T14:55:00;13.00;65.70
26954;DHT22;14508;50.924;11.600;2023-02-15T14:57:29;12.90;66.70
26954;DHT22;14508;50.924;11.600;2023-02-15T15:02:52;12.70;68.50
26954;DHT22;14508;50.924;11.600;2023-02-15T15:05:29;12.60;69.60
26954;DHT22;14508;50.924;11.600;2023-02-15T15:08:01;12.50;70.50
26954;DHT22;14508;50.924;11.600;2023-02-15T15:10:37;12.40;71.60
26954;DHT22;14508;50.924;11.600;2023-02-15T15:13:34;12.40;72.50
26954;DHT22;14508;50.924;11.600;2023-02-15T15:16:25;12.30;73.40
26954;DHT22;14508;50.924;11.600;2023-02-15T15:18:53;12.20;74.20
26954;DHT22;14508;50.924;11.600;2023-02-15T15:21:56;12.10;74.40
26954;DHT22;14508;50.924;11.600;2023-02-15T15:24:47;12.10;75.10
26954;DHT22;14508;50.924;11.600;2023-02-15T15:27:47;12.00;75.90
26954;DHT22;14508;50.924;11.600;2023-02-15T15:40:15;11.20;84.30
26954;DHT22;14508;50.924;11.600;2023-02-15T15:42:50;10.90;87.40
26954;DHT22;14508;50.924;11.600;2023-02-15T15:45:57;10.70;90.10
26954;DHT22;14508;50.924;11.600;2023-02-15T15:48:31;10.60;91.70
26954;DHT22;14508;50.924;11.600;2023-02-15T15:51:03;10.40;93.50
26954;DHT22;14508;50.924;11.600;2023-02-15T15:53:37;10.20;94.90
26954;DHT22;14508;50.924;11.600;2023-02-15T15:56:11;10.00;96.20
26954;DHT22;14508;50.924;11.600;2023-02-15T15:58:44;9.80;97.80
26954;DHT22;14508;50.924;11.600;2023-02-15T16:01:12;9.60;99.70
26954;DHT22;14508;50.924;11.600;2023-02-15T16:03:49;9.40;99.90
26954;DHT22;14508;50.924;11.600;2023-02-15T16:06:34;9.30;99.90
26954;DHT22;14508;50.924;11.600;2023-02-15T16:09:17;9.10;99.90
26954;DHT22;14508;50.924;11.600;2023-02-15T16:11:48;8.90;99.90
26954;DHT22;14508;50.924;11.600;2023-02-15T16:14:22;8.70;99.90
26954;DHT22;14508;50.924;11.600;2023-02-15T16:16:55;8.50;99.90
26954;DHT22;14508;50.924;11.600;2023-02-15T16:19:26;8.40;99.90
26954;DHT22;14508;50.924;11.600;2023-02-15T16:21:57;8.20;99.90
26954;DHT22;14508;50.924;11.600;2023-02-15T16:24:38;8.10;99.90
26954;DHT22;14508;50.924;11.600;2023-02-15T16:27:42;7.90;99.90